Time;durP1;ratioP1;P1;durP2;ratioP2;P2;SDS_P1;SDS_P2;PMS_P1;PMS_P2;Temp;Humidity;BMP_temperature;BMP_pressure;BME280_temperature;BME280_humidity;BME280_pressure;Samples;Min_cycle;Max_cycle;Signal;HPM_P1;HPM_P2
2023/11/23 00:02:05;;;;;;;14.68;3.50;;;;;;;9.99;100.00;102507.31;5052198;28;20051;-77
2023/11/23 00:04:31;;;;;;;11.75;2.88;;;;;;;9.99;100.00;102502.84;5052854;28;20037;-77
2023/11/23 00:06:57;;;;;;;15.98;2.70;;;;;;;10.02;100.00;102499.13;5052552;28;20090;-80
2023/11/23 00:09:24;;;;;;;14.20;3.03;;;;;;;10.04;100.00;102499.88;5051101;28;20029;-79
2023/11/23 00:11:49;;;;;;;15.23;3.38;;;;;;;10.06;100.00;102500.63;5052561;28;20088;-78
2023/11/23 00:14:15;;;;;;;15.20;2.90;;;;;;;10.06;100.00;102493.53;5052334;28;20091;-77
2023/11/23 00:16:43;;;;;;;12.75;2.67;;;;;;;10.05;100.00;102483.00;5051993;28;20040;-77
2023/11/23 00:19:09;;;;;;;17.95;3.03;;;;;;;10.03;100.00;102482.22;5052202;28;20040;-77
2023/11/23 00:21:35;;;;;;;13.50;3.05;;;;;;;10.05;100.00;102485.66;5051714;28;20492;-79
2023/11/23 00:24:01;;;;;;;12.93;3.00;;;;;;;10.07;100.00;102473.94;5051585;28;20131;-79
2023/11/23 00:26:26;;;;;;;13.30;3.05;;;;;;;10.07;100.00;102478.41;5051716;28;20107;-77
2023/11/23 00:28:51;;;;;;;17.30;3.05;;;;;;;10.09;100.00;102467.69;5051611;28;20051;-79
2023/11/23 00:31:17;;;;;;;11.07;2.95;;;;;;;10.09;100.00;102471.22;5051684;28;20039;-79
2023/11/23 00:33:42;;;;;;;14.57;3.05;;;;;;;10.10;100.00;102472.91;5049602;28;20041;-77
2023/11/23 00:36:08;;;;;;;12.65;2.72;;;;;;;10.10;100.00;102478.22;5051109;28;20458;-77
2023/11/23 00:38:34;;;;;;;14.95;3.15;;;;;;;10.06;100.00;102471.38;5051445;28;20029;-77
2023/11/23 00:41:00;;;;;;;9.35;2.53;;;;;;;10.01;100.00;102471.66;5051236;28;20044;-79
2023/11/23 00:43:26;;;;;;;18.45;2.63;;;;;;;10.02;100.00;102469.88;5051547;28;20036;-78
2023/11/23 00:45:51;;;;;;;14.77;2.83;;;;;;;10.00;100.00;102458.47;5051393;28;20428;-77
2023/11/23 00:48:17;;;;;;;19.10;3.17;;;;;;;10.00;100.00;102462.00;5051404;28;20441;-78
2023/11/23 00:50:42;;;;;;;16.48;2.70;;;;;;;9.94;100.00;102458.84;5051488;28;20422;-79
2023/11/23 00:53:07;;;;;;;13.73;2.88;;;;;;;9.94;100.00;102457.06;5050971;28;20029;-79
2023/11/23 00:55:33;;;;;;;13.77;3.00;;;;;;;9.91;100.00;102456.41;5050926;28;20460;-78
2023/11/23 00:57:58;;;;;;;17.48;3.60;;;;;;;9.85;100.00;102458.50;5050655;28;20065;-76
2023/11/23 01:00:24;;;;;;;16.05;2.97;;;;;;;9.77;100.00;102466.06;5050907;28;20109;-79
2023/11/23 01:02:50;;;;;;;9.35;2.65;;;;;;;9.73;100.00;102461.03;5050737;28;20029;-76
2023/11/23 01:05:18;;;;;;;10.00;2.20;;;;;;;9.65;100.00;102467.69;5050645;28;20128;-78
2023/11/23 01:07:44;;;;;;;16.73;2.70;;;;;;;9.57;100.00;102453.13;5050632;28;20117;-77
2023/11/23 01:10:10;;;;;;;20.05;3.35;;;;;;;9.46;100.00;102462.59;5051146;28;20398;-78
2023/11/23 01:12:35;;;;;;;11.60;2.90;;;;;;;9.41;100.00;102461.19;5049034;28;20044;-78
2023/11/23 01:15:01;;;;;;;19.63;3.00;;;;;;;9.33;100.00;102466.94;5050690;28;20422;-79
2023/11/23 01:17:27;;;;;;;14.48;3.03;;;;;;;9.31;100.00;102464.38;5050948;28;20040;-78
2023/11/23 01:19:53;;;;;;;18.63;2.80;;;;;;;9.26;100.00;102463.81;5050482;28;20025;-78
2023/11/23 01:22:18;;;;;;;18.98;3.10;;;;;;;9.24;100.00;102459.53;5050282;28;20120;-77
2023/11/23 01:24:43;;;;;;;15.00;3.08;;;;;;;9.17;100.00;102446.63;5051009;28;20047;-78
2023/11/23 01:27:09;;;;;;;15.15;2.90;;;;;;;9.11;100.00;102446.13;5050262;28;20029;-78
2023/11/23 01:29:35;;;;;;;13.48;3.17;;;;;;;9.10;100.00;102455.88;5049588;28;20033;-79
2023/11/23 01:32:00;;;;;;;11.55;2.65;;;;;;;9.06;100.00;102453.50;5048855;28;20048;-78
2023/11/23 01:34:25;;;;;;;11.48;2.63;;;;;;;9.04;100.00;102450.09;5050475;28;20133;-78
2023/11/23 01:36:51;;;;;;;17.00;3.10;;;;;;;8.99;100.00;102459.16;5049377;28;20453;-77
2023/11/23 01:39:16;;;;;;;17.50;3.30;;;;;;;8.96;100.00;102453.19;5048897;28;20044;-78
2023/11/23 01:41:41;;;;;;;10.45;3.03;;;;;;;8.88;100.00;102456.28;5049758;28;20048;-78
2023/11/23 01:44:07;;;;;;;12.63;2.95;;;;;;;8.87;100.00;102457.22;5050283;28;20166;-78
2023/11/23 01:46:33;;;;;;;18.27;2.95;;;;;;;8.86;100.00;102447.56;5048813;28;20418;-78
2023/11/23 01:49:00;;;;;;;14.98;2.78;;;;;;;8.91;100.00;102460.56;5048396;28;20033;-78
2023/11/23 01:51:26;;;;;;;12.10;2.63;;;;;;;8.95;100.00;102462.09;5050387;28;20445;-78
2023/11/23 01:53:52;;;;;;;18.08;3.00;;;;;;;8.99;100.00;102469.78;5050213;28;20147;-77
2023/11/23 01:56:20;;;;;;;12.30;3.40;;;;;;;8.98;100.00;102459.25;5050487;28;20102;-78
2023/11/23 01:58:46;;;;;;;11.45;2.67;;;;;;;9.01;100.00;102459.09;5050179;28;20444;-78
2023/11/23 02:01:12;;;;;;;10.93;3.10;;;;;;;9.11;100.00;102464.72;5050138;28;20052;-78
2023/11/23 02:03:38;;;;;;;17.50;3.45;;;;;;;9.05;100.00;102468.59;5050659;28;20102;-78
2023/11/23 02:06:04;;;;;;;16.23;2.65;;;;;;;8.98;100.00;102467.22;5050090;28;20135;-78
2023/11/23 02:08:29;;;;;;;11.18;2.20;;;;;;;8.97;100.00;102466.38;5050058;28;20029;-78
2023/11/23 02:10:55;;;;;;;14.30;3.20;;;;;;;8.97;100.00;102465.50;5050125;28;20033;-78
2023/11/23 02:13:21;;;;;;;9.25;2.55;;;;;;;9.00;100.00;102463.53;5049677;28;20474;-77
2023/11/23 02:15:47;;;;;;;13.57;2.78;;;;;;;8.98;100.00;102462.75;5050193;28;20025;-78
2023/11/23 02:18:13;;;;;;;15.63;2.88;;;;;;;9.02;100.00;102474.06;5048628;28;20472;-78
2023/11/23 02:20:39;;;;;;;15.23;2.80;;;;;;;9.06;100.00;102472.97;5049740;28;20032;-78
2023/11/23 02:23:04;;;;;;;15.38;3.00;;;;;;;9.14;100.00;102461.88;5050115;28;20035;-76
2023/11/23 02:25:29;;;;;;;15.07;2.67;;;;;;;9.20;100.00;102461.53;5050103;28;20029;-77
2023/11/23 02:27:57;;;;;;;15.88;2.50;;;;;;;9.26;100.00;102457.66;5049904;28;20032;-77
2023/11/23 02:30:22;;;;;;;14.48;2.75;;;;;;;9.24;100.00;102459.53;5050152;28;20032;-78
2023/11/23 02:32:50;;;;;;;19.83;3.75;;;;;;;9.24;100.00;102464.84;5049835;28;20033;-77
2023/11/23 02:35:17;;;;;;;19.40;3.50;;;;;;;9.23;100.00;102461.34;5048552;28;20033;-77
2023/11/23 02:37:42;;;;;;;15.55;2.95;;;;;;;9.22;100.00;102464.94;5049756;28;20037;-78
2023/11/23 02:40:10;;;;;;;9.55;3.35;;;;;;;9.22;100.00;102456.13;5049897;28;20492;-78
2023/11/23 02:42:36;;;;;;;15.90;2.75;;;;;;;9.23;100.00;102452.53;5049582;28;20029;-78
2023/11/23 02:45:02;;;;;;;17.00;3.05;;;;;;;9.25;100.00;102453.28;5049758;28;20048;-78
2023/11/23 02:47:27;;;;;;;11.65;3.42;;;;;;;9.26;100.00;102455.00;5051165;28;20173;-78
2023/11/23 02:49:52;;;;;;;18.48;3.35;;;;;;;9.29;100.00;102453.00;5052307;28;20055;-78
2023/11/23 02:52:18;;;;;;;13.98;2.85;;;;;;;9.35;100.00;102449.13;5053102;28;20029;-78
2023/11/23 02:54:43;;;;;;;12.80;2.80;;;;;;;9.37;100.00;102454.34;5053336;28;20032;-78
2023/11/23 02:57:08;;;;;;;16.85;3.65;;;;;;;9.37;100.00;102457.84;5052998;28;20029;-77
2023/11/23 02:59:34;;;;;;;18.33;2.83;;;;;;;9.44;100.00;102453.03;5053610;28;20475;-76
2023/11/23 03:01:59;;;;;;;13.68;2.80;;;;;;;9.40;100.00;102454.16;5053219;28;20029;-77
2023/11/23 03:04:25;;;;;;;16.70;2.47;;;;;;;9.39;100.00;102447.13;5035689;28;20139;-77
2023/11/23 03:06:50;;;;;;;15.48;3.08;;;;;;;9.34;100.00;102447.41;5053015;28;20437;-77
2023/11/23 03:09:19;;;;;;;19.52;3.38;;;;;;;9.30;100.00;102444.09;5053052;28;20078;-78
2023/11/23 03:11:44;;;;;;;11.05;3.47;;;;;;;9.33;100.00;102445.69;5051478;28;20503;-77
2023/11/23 03:14:10;;;;;;;15.93;3.00;;;;;;;9.33;100.00;102445.69;5053075;28;20033;-76
2023/11/23 03:16:35;;;;;;;14.95;2.65;;;;;;;9.31;100.00;102437.81;5052845;28;20325;-78
2023/11/23 03:19:00;;;;;;;12.98;2.97;;;;;;;9.27;100.00;102440.75;5051072;28;20492;-78
2023/11/23 03:21:26;;;;;;;12.88;2.92;;;;;;;9.26;100.00;102437.25;5053132;28;20075;-78
2023/11/23 03:23:51;;;;;;;18.55;2.65;;;;;;;9.18;100.00;102434.19;5052631;28;20077;-77
2023/11/23 03:26:16;;;;;;;11.70;2.78;;;;;;;9.15;100.00;102434.38;5052711;28;20037;-78
2023/11/23 03:28:42;;;;;;;17.10;2.95;;;;;;;9.12;100.00;102424.81;5051455;28;20040;-78
2023/11/23 03:31:07;;;;;;;9.90;2.30;;;;;;;9.04;100.00;102421.72;5050552;28;20059;-77
2023/11/23 03:33:33;;;;;;;15.05;2.45;;;;;;;9.00;100.00;102433.47;5052507;28;20487;-78
2023/11/23 03:35:58;;;;;;;11.30;2.88;;;;;;;9.01;100.00;102427.22;5052519;28;20037;-78
2023/11/23 03:38:24;;;;;;;13.18;2.38;;;;;;;9.00;100.00;102436.13;5052615;28;20457;-78
2023/11/23 03:40:49;;;;;;;9.32;2.53;;;;;;;8.97;100.00;102429.22;5052396;28;20033;-77
2023/11/23 03:43:15;;;;;;;14.35;3.00;;;;;;;8.99;100.00;102434.44;5052163;28;20111;-79
2023/11/23 03:45:40;;;;;;;11.35;2.60;;;;;;;8.99;100.00;102447.72;5052264;28;20037;-77
2023/11/23 03:48:06;;;;;;;8.43;2.22;;;;;;;9.02;100.00;102430.72;5052107;28;20032;-78
2023/11/23 03:50:33;;;;;;;7.82;2.47;;;;;;;9.02;100.00;102433.38;5051999;28;20116;-78
2023/11/23 03:52:59;;;;;;;13.23;2.65;;;;;;;9.01;100.00;102429.88;5052204;28;20079;-78
2023/11/23 03:55:24;;;;;;;11.45;2.25;;;;;;;8.96;100.00;102446.06;5050561;28;20028;-78
2023/11/23 03:57:49;;;;;;;17.80;2.72;;;;;;;8.94;100.00;102433.81;5052037;28;20395;-78
2023/11/23 04:00:15;;;;;;;15.93;2.58;;;;;;;8.96;100.00;102431.97;5049655;28;20041;-78
2023/11/23 04:02:43;;;;;;;8.65;2.17;;;;;;;9.00;100.00;102431.69;5052019;28;20037;-77
2023/11/23 04:05:09;;;;;;;11.45;2.40;;;;;;;9.00;100.00;102414.88;5051441;28;20493;-78
2023/11/23 04:07:35;;;;;;;18.27;3.13;;;;;;;9.02;100.00;102428.06;5051571;28;20037;-78
2023/11/23 04:10:02;;;;;;;6.35;2.20;;;;;;;9.04;100.00;102416.41;5051633;28;20029;-78
2023/11/23 04:12:28;;;;;;;13.60;2.83;;;;;;;9.06;100.00;102416.31;5052181;28;20087;-78
2023/11/23 04:14:54;;;;;;;6.50;2.20;;;;;;;9.04;100.00;102418.22;5052137;28;20424;-78
2023/11/23 04:17:19;;;;;;;8.07;2.50;;;;;;;9.04;100.00;102419.06;5051597;28;20029;-77
2023/11/23 04:19:44;;;;;;;9.65;2.45;;;;;;;9.04;100.00;102416.41;5051628;28;20067;-77
2023/11/23 04:22:10;;;;;;;16.10;2.70;;;;;;;9.09;100.00;102424.09;5051406;28;20033;-78
2023/11/23 04:24:41;;;;;;;10.05;2.50;;;;;;;9.08;100.00;102420.59;5051672;28;20036;-77
2023/11/23 04:27:06;;;;;;;9.52;2.38;;;;;;;9.04;100.00;102420.88;5051445;28;20033;-78
2023/11/23 04:29:32;;;;;;;5.65;2.35;;;;;;;9.04;100.00;102424.38;5051614;28;20051;-79
2023/11/23 04:31:57;;;;;;;14.85;2.38;;;;;;;9.05;100.00;102426.09;5050287;28;20066;-78
2023/11/23 04:34:23;;;;;;;8.48;2.38;;;;;;;9.03;100.00;102419.16;5051546;28;20178;-78
2023/11/23 04:36:48;;;;;;;10.27;2.45;;;;;;;9.08;100.00;102414.47;5051562;28;20477;-77
2023/11/23 04:39:14;;;;;;;15.25;2.60;;;;;;;9.11;100.00;102420.44;5051160;28;20049;-78
2023/11/23 04:41:40;;;;;;;12.80;2.40;;;;;;;9.15;100.00;102423.75;5051468;28;20117;-78
2023/11/23 04:44:05;;;;;;;15.45;2.70;;;;;;;9.15;100.00;102426.41;5051499;28;20033;-78
2023/11/23 04:46:31;;;;;;;15.45;2.53;;;;;;;9.13;100.00;102417.69;5051460;28;20120;-77
2023/11/23 04:48:57;;;;;;;15.88;2.47;;;;;;;9.13;100.00;102428.31;5051267;28;20033;-76
2023/11/23 04:51:22;;;;;;;11.20;2.53;;;;;;;9.14;100.00;102420.25;5049892;28;20071;-76
2023/11/23 04:53:48;;;;;;;13.57;2.80;;;;;;;9.12;100.00;102421.28;5051245;28;20441;-76
2023/11/23 04:56:13;;;;;;;13.30;2.55;;;;;;;9.13;100.00;102415.03;5049573;28;20537;-76
2023/11/23 04:58:39;;;;;;;18.27;2.67;;;;;;;9.09;100.00;102417.03;5049157;28;20053;-77
2023/11/23 05:01:05;;;;;;;17.63;2.20;;;;;;;9.12;100.00;102415.97;5050504;28;20084;-76
2023/11/23 05:03:31;;;;;;;13.63;2.70;;;;;;;9.12;100.00;102419.50;5051495;28;20063;-76
2023/11/23 05:05:56;;;;;;;17.27;3.22;;;;;;;9.16;100.00;102420.16;5051291;28;20119;-76
2023/11/23 05:08:21;;;;;;;12.95;2.10;;;;;;;9.16;100.00;102412.19;5049304;28;20149;-76
2023/11/23 05:10:47;;;;;;;15.82;2.55;;;;;;;9.14;100.00;102414.94;5050695;28;20029;-77
2023/11/23 05:13:13;;;;;;;12.10;2.28;;;;;;;9.18;100.00;102416.47;5050893;28;20033;-76
2023/11/23 05:15:39;;;;;;;9.88;2.00;;;;;;;9.17;100.00;102422.72;5050805;28;20147;-76
2023/11/23 05:18:05;;;;;;;12.82;2.17;;;;;;;9.10;100.00;102404.59;5050890;28;20157;-78
2023/11/23 05:20:30;;;;;;;11.90;2.00;;;;;;;9.12;100.00;102408.00;5050663;28;20071;-76
2023/11/23 05:22:55;;;;;;;15.70;2.63;;;;;;;9.12;100.00;102402.69;5050659;28;20036;-76
2023/11/23 05:25:21;;;;;;;13.48;2.58;;;;;;;9.07;100.00;102397.66;5050493;28;20323;-76
2023/11/23 05:27:46;;;;;;;16.70;3.50;;;;;;;9.03;100.00;102393.47;5050978;28;20258;-76
2023/11/23 05:30:12;;;;;;;20.60;2.22;;;;;;;9.02;100.00;102394.44;5050466;28;20037;-77
2023/11/23 05:32:37;;;;;;;12.85;3.42;;;;;;;9.11;100.00;102393.88;5050776;28;20433;-77
2023/11/23 05:35:03;;;;;;;10.23;2.45;;;;;;;9.20;100.00;102397.78;5049329;28;20119;-78
2023/11/23 05:37:29;;;;;;;14.13;2.22;;;;;;;9.25;100.00;102394.84;5050759;28;20037;-78
2023/11/23 05:39:54;;;;;;;11.50;1.67;;;;;;;9.24;100.00;102387.81;5051047;28;20055;-77
2023/11/23 05:42:19;;;;;;;14.20;2.58;;;;;;;9.22;100.00;102385.25;5050562;28;20116;-78
2023/11/23 05:44:45;;;;;;;11.55;2.45;;;;;;;9.16;100.00;102386.47;5050697;28;20119;-78
2023/11/23 05:47:10;;;;;;;13.30;2.95;;;;;;;9.12;100.00;102379.66;5050727;28;20084;-78
2023/11/23 05:49:36;;;;;;;13.98;2.33;;;;;;;9.16;100.00;102372.34;5050534;28;20033;-77
2023/11/23 05:52:01;;;;;;;12.52;2.30;;;;;;;9.13;100.00;102378.69;5049545;28;20507;-80
2023/11/23 05:54:27;;;;;;;16.67;2.67;;;;;;;9.10;100.00;102376.22;5049229;28;20502;-77
2023/11/23 05:56:52;;;;;;;11.25;2.08;;;;;;;9.05;100.00;102370.34;5049182;28;20036;-79
2023/11/23 05:59:18;;;;;;;15.32;2.45;;;;;;;9.00;100.00;102375.94;5050610;28;20140;-78
2023/11/23 06:01:43;;;;;;;12.60;2.58;;;;;;;8.97;100.00;102368.16;5050613;28;20041;-78
2023/11/23 06:04:08;;;;;;;13.93;2.22;;;;;;;8.96;100.00;102373.56;5050814;28;20032;-78
2023/11/23 06:06:34;;;;;;;21.33;3.17;;;;;;;8.90;100.00;102385.38;5049011;28;20040;-78
2023/11/23 06:08:59;;;;;;;13.82;2.90;;;;;;;8.89;100.00;102377.50;5049105;28;20037;-78
2023/11/23 06:11:24;;;;;;;17.20;3.20;;;;;;;8.88;100.00;102384.59;5050622;28;20057;-77
2023/11/23 06:13:50;;;;;;;13.73;2.47;;;;;;;8.85;100.00;102379.47;5048797;28;20510;-78
2023/11/23 06:16:15;;;;;;;15.73;2.63;;;;;;;8.83;100.00;102379.56;5050455;28;20033;-78
2023/11/23 06:18:41;;;;;;;20.42;3.15;;;;;;;8.82;100.00;102374.34;5050550;28;20033;-78
2023/11/23 06:21:08;;;;;;;13.50;3.05;;;;;;;8.82;100.00;102374.34;5050770;28;20033;-78
2023/11/23 06:23:33;;;;;;;17.20;3.28;;;;;;;8.81;100.00;102377.97;5053439;28;20457;-79
2023/11/23 06:25:59;;;;;;;20.63;2.65;;;;;;;8.82;100.00;102377.88;5054234;28;20075;-78
2023/11/23 06:28:24;;;;;;;17.27;2.97;;;;;;;8.80;100.00;102369.13;5054236;28;20024;-78
2023/11/23 06:30:51;;;;;;;14.50;2.90;;;;;;;8.83;100.00;102360.97;5054036;28;20104;-78
2023/11/23 06:33:16;;;;;;;10.80;2.75;;;;;;;8.79;100.00;102359.47;5053672;28;20041;-78
2023/11/23 06:35:42;;;;;;;21.50;3.03;;;;;;;8.77;100.00;102361.34;5053074;28;20124;-78
2023/11/23 06:38:07;;;;;;;22.25;3.50;;;;;;;8.77;100.00;102364.00;5053110;28;20029;-78
2023/11/23 06:40:35;;;;;;;21.00;2.80;;;;;;;8.77;100.00;102363.16;5053025;28;20029;-78
2023/11/23 06:43:01;;;;;;;19.48;3.17;;;;;;;8.72;100.00;102360.78;5053476;28;20096;-80
2023/11/23 06:45:28;;;;;;;18.50;3.10;;;;;;;8.73;100.00;102372.25;5053697;28;20464;-78
2023/11/23 06:47:53;;;;;;;16.80;2.88;;;;;;;8.75;100.00;102371.22;5051426;28;20131;-78
2023/11/23 06:50:20;;;;;;;21.13;3.50;;;;;;;8.72;100.00;102379.34;5053541;28;20068;-77
2023/11/23 06:53:09;;;;;;;20.90;3.53;;;;;;;8.81;100.00;102376.16;5056367;28;20087;-77
2023/11/23 06:55:39;;;;;;;17.08;2.78;;;;;;;8.84;100.00;102369.81;5054749;28;20052;-79
2023/11/23 06:58:21;;;;;;;27.75;3.25;;;;;;;8.86;100.00;102367.91;5036767;28;20053;-77
2023/11/23 07:00:47;;;;;;;19.05;3.25;;;;;;;8.85;100.00;102366.19;5052697;28;20132;-78
2023/11/23 07:03:13;;;;;;;23.52;3.25;;;;;;;8.88;100.00;102371.31;5053588;28;20105;-78
2023/11/23 07:05:38;;;;;;;18.13;2.80;;;;;;;8.88;100.00;102371.31;5052575;28;20083;-80
2023/11/23 07:08:04;;;;;;;24.08;3.08;;;;;;;8.91;100.00;102367.66;5050866;28;20056;-80
2023/11/23 07:10:33;;;;;;;14.93;3.20;;;;;;;8.91;100.00;102362.34;5052416;28;20211;-81
2023/11/23 07:12:59;;;;;;;12.98;2.30;;;;;;;8.90;100.00;102361.50;5052779;28;20037;-77
2023/11/23 07:15:26;;;;;;;14.43;3.08;;;;;;;8.88;100.00;102367.81;5052716;28;20402;-77
2023/11/23 07:17:51;;;;;;;15.45;2.40;;;;;;;8.84;100.00;102380.44;5052259;28;20039;-78
2023/11/23 07:20:18;;;;;;;19.85;3.17;;;;;;;8.90;100.00;102379.22;5052634;28;20567;-77
2023/11/23 07:22:43;;;;;;;21.50;3.30;;;;;;;8.95;100.00;102385.94;5052408;28;20421;-80
2023/11/23 07:25:09;;;;;;;20.40;3.22;;;;;;;8.99;100.00;102386.66;5051025;28;20059;-78
2023/11/23 07:27:36;;;;;;;16.42;2.83;;;;;;;9.10;100.00;102373.56;5050969;28;20033;-78
2023/11/23 07:30:03;;;;;;;17.48;2.92;;;;;;;9.21;100.00;102385.34;5052494;28;20041;-77
2023/11/23 07:32:28;;;;;;;13.13;3.17;;;;;;;9.29;100.00;102389.25;5052481;28;20049;-76
2023/11/23 07:34:53;;;;;;;18.35;3.03;;;;;;;9.33;100.00;102382.81;5050859;28;20096;-78
2023/11/23 07:37:19;;;;;;;10.98;2.33;;;;;;;9.44;100.00;102371.53;5052209;28;20063;-79
2023/11/23 07:39:47;;;;;;;16.25;2.60;;;;;;;9.49;100.00;102369.47;5052241;28;20117;-79
2023/11/23 07:42:12;;;;;;;15.32;2.50;;;;;;;9.56;100.00;102374.38;5051963;28;20052;-79
2023/11/23 07:44:38;;;;;;;12.82;2.60;;;;;;;9.61;100.00;102369.63;5052348;28;20036;-77
2023/11/23 07:47:03;;;;;;;18.90;3.55;;;;;;;9.65;100.00;102361.38;5052215;28;20037;-80
2023/11/23 07:49:29;;;;;;;27.25;3.38;;;;;;;9.71;100.00;102354.81;5052022;28;20132;-77
2023/11/23 07:51:57;;;;;;;17.23;2.38;;;;;;;9.81;100.00;102347.97;5052299;28;20036;-76
2023/11/23 07:54:23;;;;;;;13.52;2.60;;;;;;;9.93;100.00;102356.09;5051664;28;20433;-78
2023/11/23 07:56:50;;;;;;;13.40;2.63;;;;;;;9.98;100.00;102352.22;5050446;28;20120;-78
2023/11/23 07:59:16;;;;;;;15.27;2.30;;;;;;;10.05;100.00;102344.69;5052338;28;20052;-78
2023/11/23 08:01:42;;;;;;;21.60;3.30;;;;;;;10.11;100.00;102344.31;5051944;28;20041;-78
2023/11/23 08:04:07;;;;;;;17.63;2.80;;;;;;;10.14;100.00;102346.75;5050348;28;20115;-81
2023/11/23 08:06:32;;;;;;;21.90;2.92;;;;;;;10.23;100.00;102326.69;5051846;28;20087;-79
2023/11/23 08:08:58;;;;;;;11.10;2.42;;;;;;;10.28;100.00;102327.22;5050447;28;20048;-80
2023/11/23 08:11:23;;;;;;;13.55;2.92;;;;;;;10.31;100.00;102327.03;5050140;28;20032;-79
2023/11/23 08:13:51;;;;;;;18.85;3.35;;;;;;;10.30;100.00;102337.78;5051429;28;20060;-78
2023/11/23 08:16:18;;;;;;;15.13;2.60;;;;;;;10.36;100.00;102343.59;5051309;28;20033;-79
2023/11/23 08:18:45;;;;;;;14.50;2.67;;;;;;;10.40;100.00;102346.91;5051395;28;20033;-78
2023/11/23 08:21:11;;;;;;;11.77;2.50;;;;;;;10.45;100.00;102333.28;5051377;28;20037;-77
2023/11/23 08:23:36;;;;;;;15.25;2.55;;;;;;;10.48;100.00;102306.47;5051465;28;20246;-78
2023/11/23 08:26:03;;;;;;;17.60;2.85;;;;;;;10.42;100.00;102297.09;5049532;28;20039;-79
2023/11/23 08:28:28;;;;;;;19.38;3.00;;;;;;;10.37;100.00;102302.72;5051966;28;20131;-79
2023/11/23 08:30:54;;;;;;;15.40;3.47;;;;;;;10.35;100.00;102309.09;5051894;28;20103;-79
2023/11/23 08:33:19;;;;;;;17.88;2.83;;;;;;;10.41;100.00;102316.69;5033451;28;20025;-79
2023/11/23 08:35:48;;;;;;;18.30;2.60;;;;;;;10.52;100.00;102314.13;5051091;28;20090;-79
2023/11/23 08:38:13;;;;;;;9.75;2.15;;;;;;;10.67;100.00;102316.72;5033940;28;20059;-81
2023/11/23 08:40:39;;;;;;;25.60;2.92;;;;;;;10.81;100.00;102302.47;5051225;28;20036;-78
2023/11/23 08:43:06;;;;;;;13.80;2.45;;;;;;;10.90;100.00;102302.72;5051222;28;20084;-78
2023/11/23 08:45:31;;;;;;;16.60;2.75;;;;;;;10.96;100.00;102288.13;5050845;28;20048;-79
2023/11/23 08:47:57;;;;;;;18.48;2.47;;;;;;;11.04;100.00;102290.25;5051480;28;20041;-79
2023/11/23 08:50:22;;;;;;;12.93;2.75;;;;;;;11.10;100.00;102295.16;5051018;28;20116;-77
2023/11/23 08:52:47;;;;;;;15.00;2.67;;;;;;;11.18;100.00;102299.94;5051006;28;20033;-80
2023/11/23 08:55:13;;;;;;;9.05;2.17;;;;;;;11.16;100.00;102299.19;5049396;28;20119;-79
2023/11/23 08:57:40;;;;;;;11.10;2.05;;;;;;;11.19;100.00;102291.00;5049245;28;20118;-77
2023/11/23 09:00:10;;;;;;;15.52;2.53;;;;;;;11.24;100.00;102289.72;5050978;28;20036;-78
2023/11/23 09:02:38;;;;;;;12.82;2.50;;;;;;;11.31;100.00;102273.28;5051007;28;20037;-79
2023/11/23 09:05:09;;;;;;;14.55;2.35;;;;;;;11.37;100.00;102284.34;5049689;28;20037;-81
2023/11/23 09:07:35;;;;;;;18.42;2.83;;;;;;;11.45;100.00;102283.84;5049627;28;20041;-79
2023/11/23 09:10:00;;;;;;;16.98;2.30;;;;;;;11.60;100.00;102290.72;5050952;28;20083;-79
2023/11/23 09:12:27;;;;;;;12.38;2.40;;;;;;;11.73;100.00;102279.16;5050598;28;20033;-78
2023/11/23 09:14:56;;;;;;;11.98;2.28;;;;;;;11.61;100.00;102278.22;5050838;28;20037;-77
2023/11/23 09:17:22;;;;;;;14.48;2.40;;;;;;;11.58;100.00;102281.13;5050900;28;20428;-78
2023/11/23 09:19:47;;;;;;;10.30;2.35;;;;;;;11.38;100.00;102279.91;5050920;28;20108;-81
2023/11/23 09:22:13;;;;;;;10.02;1.90;;;;;;;11.26;100.00;102265.63;5032929;28;20037;-82
2023/11/23 09:24:38;;;;;;;13.18;2.15;;;;;;;11.14;100.00;102250.50;5049850;28;20430;-80
2023/11/23 09:27:06;;;;;;;8.85;1.60;;;;;;;11.13;100.00;102257.63;5051193;28;20059;-80
2023/11/23 09:29:31;;;;;;;12.30;2.10;;;;;;;11.10;100.00;102260.53;5050713;28;20032;-81
2023/11/23 09:31:57;;;;;;;15.38;2.33;;;;;;;11.04;100.00;102267.13;5050470;28;20345;-79
2023/11/23 09:34:22;;;;;;;10.27;2.15;;;;;;;11.00;100.00;102263.00;5050389;28;20083;-79
2023/11/23 09:36:48;;;;;;;8.55;2.20;;;;;;;11.01;100.00;102247.84;5050169;28;20033;-79
2023/11/23 09:39:17;;;;;;;11.50;2.20;;;;;;;11.03;100.00;102254.78;5049072;28;20029;-79
2023/11/23 09:41:43;;;;;;;11.48;2.35;;;;;;;11.07;100.00;102242.09;5050675;28;20140;-81
2023/11/23 09:44:09;;;;;;;11.48;2.08;;;;;;;11.10;100.00;102234.72;5050518;28;20116;-80
2023/11/23 09:46:38;;;;;;;11.13;2.20;;;;;;;11.17;100.00;102231.66;5050410;28;20417;-80
2023/11/23 09:49:07;;;;;;;13.63;2.22;;;;;;;11.24;100.00;102224.91;5050766;28;20167;-81
2023/11/23 09:51:35;;;;;;;18.05;2.33;;;;;;;11.27;100.00;102233.53;5050579;28;20028;-78
2023/11/23 09:54:03;;;;;;;14.45;2.72;;;;;;;11.24;100.00;102236.44;5051051;28;20131;-82
2023/11/23 09:56:29;;;;;;;17.65;2.53;;;;;;;11.24;100.00;102251.53;5050328;28;20040;-78
2023/11/23 09:58:55;;;;;;;14.77;2.60;;;;;;;11.32;100.00;102248.34;5053864;28;20065;-78
2023/11/23 10:01:24;;;;;;;10.30;2.28;;;;;;;11.44;100.00;102242.97;5054512;28;20422;-77
2023/11/23 10:03:54;;;;;;;14.20;2.28;;;;;;;11.53;100.00;102243.28;5054445;28;20032;-78
2023/11/23 10:06:19;;;;;;;18.52;2.15;;;;;;;11.54;100.00;102247.66;5054366;28;20461;-79
2023/11/23 10:08:45;;;;;;;15.52;2.25;;;;;;;11.44;100.00;102248.31;5054308;28;20182;-78
2023/11/23 10:11:11;;;;;;;10.48;2.47;;;;;;;11.41;100.00;102256.53;5054379;28;20457;-77
2023/11/23 10:13:36;;;;;;;13.25;2.63;;;;;;;11.39;100.00;102260.25;5054080;28;20029;-77
2023/11/23 10:16:04;;;;;;;13.73;2.25;;;;;;;11.49;100.00;102250.63;5054375;28;20420;-78
2023/11/23 10:18:37;;;;;;;16.20;2.88;;;;;;;11.61;100.00;102247.13;5054263;28;20036;-79
2023/11/23 10:21:02;;;;;;;12.32;2.72;;;;;;;11.59;100.00;102243.69;5036395;28;20040;-77
2023/11/23 10:23:28;;;;;;;12.40;2.33;;;;;;;11.68;100.00;102252.00;5054246;28;20036;-82
2023/11/23 10:25:54;;;;;;;19.45;2.63;;;;;;;11.77;100.00;102244.16;5053928;28;20327;-78
2023/11/23 10:28:22;;;;;;;13.77;2.35;;;;;;;11.86;100.00;102229.28;5053754;28;20079;-79
2023/11/23 10:30:49;;;;;;;14.82;2.63;;;;;;;11.96;100.00;102221.50;5054064;28;20108;-81
2023/11/23 10:33:16;;;;;;;17.42;2.42;;;;;;;11.90;100.00;102209.44;5053607;28;20037;-80
2023/11/23 10:35:45;;;;;;;10.73;2.38;;;;;;;11.76;100.00;102210.47;5053537;28;20021;-80
2023/11/23 10:38:12;;;;;;;15.18;3.13;;;;;;;11.58;100.00;102209.97;5053707;28;20051;-81
2023/11/23 10:40:38;;;;;;;9.68;2.50;;;;;;;11.43;100.00;102203.97;5052170;28;20102;-81
2023/11/23 10:43:06;;;;;;;13.98;2.42;;;;;;;11.39;100.00;102201.63;5053633;28;20334;-82
2023/11/23 10:45:35;;;;;;;12.57;2.83;;;;;;;11.41;100.00;102192.56;5052434;28;20063;-82
2023/11/23 10:48:02;;;;;;;12.65;2.63;;;;;;;11.63;100.00;102189.19;5036000;28;20516;-80
2023/11/23 10:50:29;;;;;;;14.25;2.47;;;;;;;11.93;100.00;102189.72;5052169;28;20154;-83
2023/11/23 10:52:58;;;;;;;16.33;2.40;;;;;;;12.15;100.00;102171.13;5053736;28;20033;-80
2023/11/23 10:55:24;;;;;;;9.35;2.80;;;;;;;12.15;100.00;102149.78;5051607;28;20101;-81
2023/11/23 10:58:01;;;;;;;14.60;2.45;;;;;;;11.95;100.00;102158.44;5053365;28;20060;-79
2023/11/23 11:00:28;;;;;;;12.70;2.63;;;;;;;11.85;100.00;102139.59;5053453;28;20112;-80
2023/11/23 11:03:04;;;;;;;14.10;2.28;;;;;;;11.88;100.00;102139.34;5051969;28;20033;-81
2023/11/23 11:05:31;;;;;;;13.90;2.22;;;;;;;11.88;100.00;102128.69;5053510;28;20065;-81
2023/11/23 11:08:07;;;;;;;12.02;2.60;;;;;;;11.85;100.00;102134.25;5052580;28;20036;-80
2023/11/23 11:10:42;;;;;;;16.77;2.35;;;;;;;11.91;100.00;102116.94;5053401;28;20108;-82